sensor_id;sensor_type;location;lat;lon;timestamp;temperature;humidity
12655;DHT22;6392;44.644;11.448;2023-10-09T00:00:06;20.10;99.90
12655;DHT22;6392;44.644;11.448;2023-10-09T00:02:57;20.10;99.90
12655;DHT22;6392;44.644;11.448;2023-10-09T00:05:26;20.10;99.90
12655;DHT22;6392;44.644;11.448;2023-10-09T00:08:07;20.10;99.90
12655;DHT22;6392;44.644;11.448;2023-10-09T00:10:37;20.00;99.90
12655;DHT22;6392;44.644;11.448;2023-10-09T00:13:14;20.00;99.90
12655;DHT22;6392;44.644;11.448;2023-10-09T00:15:42;20.00;99.90
12655;DHT22;6392;44.644;11.448;2023-10-09T00:18:18;20.00;99.90
12655;DHT22;6392;44.644;11.448;2023-10-09T00:20:55;20.00;99.90
12655;DHT22;6392;44.644;11.448;2023-10-09T00:23:33;20.10;99.90
12655;DHT22;6392;44.644;11.448;2023-10-09T00:26:01;20.10;99.90
12655;DHT22;6392;44.644;11.448;2023-10-09T00:28:39;20.00;99.90
12655;DHT22;6392;44.644;11.448;2023-10-09T00:31:11;19.90;99.90
12655;DHT22;6392;44.644;11.448;2023-10-09T00:33:53;19.90;99.90
12655;DHT22;6392;44.644;11.448;2023-10-09T00:36:29;20.00;99.90
12655;DHT22;6392;44.644;11.448;2023-10-09T00:39:01;19.90;99.90
12655;DHT22;6392;44.644;11.448;2023-10-09T00:41:44;20.00;99.90
12655;DHT22;6392;44.644;11.448;2023-10-09T00:44:14;19.90;99.90
12655;DHT22;6392;44.644;11.448;2023-10-09T00:46:44;19.90;99.90
12655;DHT22;6392;44.644;11.448;2023-10-09T00:49:16;19.90;99.90
12655;DHT22;6392;44.644;11.448;2023-10-09T00:51:50;19.90;99.90
12655;DHT22;6392;44.644;11.448;2023-10-09T00:54:24;19.80;99.90
12655;DHT22;6392;44.644;11.448;2023-10-09T00:57:02;19.80;99.90
12655;DHT22;6392;44.644;11.448;2023-10-09T00:59:33;19.90;99.90
12655;DHT22;6392;44.644;11.448;2023-10-09T01:02:02;19.90;99.90
12655;DHT22;6392;44.644;11.448;2023-10-09T01:04:43;20.00;99.90
12655;DHT22;6392;44.644;11.448;2023-10-09T01:07:10;19.90;99.90
12655;DHT22;6392;44.644;11.448;2023-10-09T01:09:42;19.80;99.90
12655;DHT22;6392;44.644;11.448;2023-10-09T01:12:10;19.70;99.90
12655;DHT22;6392;44.644;11.448;2023-10-09T01:14:43;19.60;99.90
12655;DHT22;6392;44.644;11.448;2023-10-09T01:17:18;19.70;99.90
12655;DHT22;6392;44.644;11.448;2023-10-09T01:19:56;19.80;99.90
12655;DHT22;6392;44.644;11.448;2023-10-09T01:22:30;19.80;99.90
12655;DHT22;6392;44.644;11.448;2023-10-09T01:24:58;19.80;99.90
12655;DHT22;6392;44.644;11.448;2023-10-09T01:27:25;19.80;99.90
12655;DHT22;6392;44.644;11.448;2023-10-09T01:29:57;19.80;99.90
12655;DHT22;6392;44.644;11.448;2023-10-09T01:32:25;19.80;99.90
12655;DHT22;6392;44.644;11.448;2023-10-09T01:34:52;19.80;99.90
12655;DHT22;6392;44.644;11.448;2023-10-09T01:37:21;19.90;99.90
12655;DHT22;6392;44.644;11.448;2023-10-09T01:39:56;19.90;99.90
12655;DHT22;6392;44.644;11.448;2023-10-09T01:42:48;19.90;99.90
12655;DHT22;6392;44.644;11.448;2023-10-09T01:45:16;19.90;99.90
12655;DHT22;6392;44.644;11.448;2023-10-09T01:47:52;19.90;99.90
12655;DHT22;6392;44.644;11.448;2023-10-09T01:50:19;19.90;99.90
12655;DHT22;6392;44.644;11.448;2023-10-09T01:52:50;19.80;99.90
12655;DHT22;6392;44.644;11.448;2023-10-09T01:55:18;19.80;99.90
12655;DHT22;6392;44.644;11.448;2023-10-09T01:57:56;19.90;99.90
12655;DHT22;6392;44.644;11.448;2023-10-09T02:00:31;19.90;99.90
12655;DHT22;6392;44.644;11.448;2023-10-09T02:03:07;19.90;99.90
12655;DHT22;6392;44.644;11.448;2023-10-09T02:05:42;20.00;99.90
12655;DHT22;6392;44.644;11.448;2023-10-09T02:08:11;20.00;99.90
12655;DHT22;6392;44.644;11.448;2023-10-09T02:10:39;20.00;99.90
12655;DHT22;6392;44.644;11.448;2023-10-09T02:13:14;20.10;99.90
12655;DHT22;6392;44.644;11.448;2023-10-09T02:15:43;20.10;99.90
12655;DHT22;6392;44.644;11.448;2023-10-09T02:18:38;20.10;99.90
12655;DHT22;6392;44.644;11.448;2023-10-09T02:21:18;20.20;99.90
12655;DHT22;6392;44.644;11.448;2023-10-09T02:23:54;20.10;99.90
12655;DHT22;6392;44.644;11.448;2023-10-09T02:26:23;20.10;99.90
12655;DHT22;6392;44.644;11.448;2023-10-09T02:29:00;20.00;99.90
12655;DHT22;6392;44.644;11.448;2023-10-09T02:31:31;20.00;99.90
12655;DHT22;6392;44.644;11.448;2023-10-09T02:34:07;20.00;99.90
12655;DHT22;6392;44.644;11.448;2023-10-09T02:36:40;19.90;99.90
12655;DHT22;6392;44.644;11.448;2023-10-09T02:39:27;19.80;99.90
12655;DHT22;6392;44.644;11.448;2023-10-09T02:42:02;19.60;99.90
12655;DHT22;6392;44.644;11.448;2023-10-09T02:44:46;19.50;99.90
12655;DHT22;6392;44.644;11.448;2023-10-09T02:47:15;19.40;99.90
12655;DHT22;6392;44.644;11.448;2023-10-09T02:49:47;19.30;99.90
12655;DHT22;6392;44.644;11.448;2023-10-09T02:52:16;19.20;99.90
12655;DHT22;6392;44.644;11.448;2023-10-09T02:54:50;19.20;99.90
12655;DHT22;6392;44.644;11.448;2023-10-09T02:57:26;19.20;99.90
12655;DHT22;6392;44.644;11.448;2023-10-09T03:00:05;19.20;99.90
12655;DHT22;6392;44.644;11.448;2023-10-09T03:02:44;19.10;99.90
12655;DHT22;6392;44.644;11.448;2023-10-09T03:05:15;19.10;99.90
12655;DHT22;6392;44.644;11.448;2023-10-09T03:07:42;19.10;99.90
12655;DHT22;6392;44.644;11.448;2023-10-09T03:10:10;19.20;99.90
12655;DHT22;6392;44.644;11.448;2023-10-09T03:12:37;19.20;99.90
12655;DHT22;6392;44.644;11.448;2023-10-09T03:15:07;19.30;99.90
12655;DHT22;6392;44.644;11.448;2023-10-09T03:17:35;19.20;99.90
12655;DHT22;6392;44.644;11.448;2023-10-09T03:20:04;19.20;99.90
12655;DHT22;6392;44.644;11.448;2023-10-09T03:22:40;19.20;99.90
12655;DHT22;6392;44.644;11.448;2023-10-09T03:25:10;19.20;99.90
12655;DHT22;6392;44.644;11.448;2023-10-09T03:27:40;19.10;99.90
12655;DHT22;6392;44.644;11.448;2023-10-09T03:30:13;19.10;99.90
12655;DHT22;6392;44.644;11.448;2023-10-09T03:32:48;19.10;99.90
12655;DHT22;6392;44.644;11.448;2023-10-09T03:35:17;19.10;99.90
12655;DHT22;6392;44.644;11.448;2023-10-09T03:37:51;19.20;99.90
12655;DHT22;6392;44.644;11.448;2023-10-09T03:40:22;19.30;99.90
12655;DHT22;6392;44.644;11.448;2023-10-09T03:42:50;19.40;99.90
12655;DHT22;6392;44.644;11.448;2023-10-09T03:45:20;19.30;99.90
12655;DHT22;6392;44.644;11.448;2023-10-09T03:47:55;19.30;99.90
12655;DHT22;6392;44.644;11.448;2023-10-09T03:50:35;19.30;99.90
12655;DHT22;6392;44.644;11.448;2023-10-09T03:53:04;19.30;99.90
12655;DHT22;6392;44.644;11.448;2023-10-09T03:55:34;19.20;99.90
12655;DHT22;6392;44.644;11.448;2023-10-09T03:58:04;19.20;99.90
12655;DHT22;6392;44.644;11.448;2023-10-09T04:00:33;19.10;99.90
12655;DHT22;6392;44.644;11.448;2023-10-09T04:03:10;19.10;99.90
12655;DHT22;6392;44.644;11.448;2023-10-09T04:05:40;19.10;99.90
12655;DHT22;6392;44.644;11.448;2023-10-09T04:08:10;19.00;99.90
12655;DHT22;6392;44.644;11.448;2023-10-09T04:10:50;19.10;99.90
12655;DHT22;6392;44.644;11.448;2023-10-09T04:13:27;19.10;99.90
12655;DHT22;6392;44.644;11.448;2023-10-09T04:16:02;19.20;99.90
12655;DHT22;6392;44.644;11.448;2023-10-09T04:18:52;19.20;99.90
12655;DHT22;6392;44.644;11.448;2023-10-09T04:21:22;19.20;99.90
12655;DHT22;6392;44.644;11.448;2023-10-09T04:24:01;19.30;99.90
12655;DHT22;6392;44.644;11.448;2023-10-09T04:26:43;19.30;99.90
12655;DHT22;6392;44.644;11.448;2023-10-09T04:29:14;19.30;99.90
12655;DHT22;6392;44.644;11.448;2023-10-09T04:31:46;19.20;99.90
12655;DHT22;6392;44.644;11.448;2023-10-09T04:34:18;19.10;99.90
12655;DHT22;6392;44.644;11.448;2023-10-09T04:37:00;19.00;99.90
12655;DHT22;6392;44.644;11.448;2023-10-09T04:39:45;19.00;99.90
12655;DHT22;6392;44.644;11.448;2023-10-09T04:42:15;19.00;99.90
12655;DHT22;6392;44.644;11.448;2023-10-09T04:44:52;19.10;99.90
12655;DHT22;6392;44.644;11.448;2023-10-09T04:47:43;19.10;99.90
12655;DHT22;6392;44.644;11.448;2023-10-09T04:50:24;19.10;99.90
12655;DHT22;6392;44.644;11.448;2023-10-09T04:53:12;19.20;99.90
12655;DHT22;6392;44.644;11.448;2023-10-09T04:55:51;19.20;99.90
12655;DHT22;6392;44.644;11.448;2023-10-09T04:58:30;19.30;99.90
12655;DHT22;6392;44.644;11.448;2023-10-09T05:01:04;19.30;99.90
12655;DHT22;6392;44.644;11.448;2023-10-09T05:03:42;19.20;99.90
12655;DHT22;6392;44.644;11.448;2023-10-09T05:06:18;19.20;99.90
12655;DHT22;6392;44.644;11.448;2023-10-09T05:08:58;19.30;99.90
12655;DHT22;6392;44.644;11.448;2023-10-09T05:11:34;19.30;99.90
12655;DHT22;6392;44.644;11.448;2023-10-09T05:14:19;19.20;99.90
12655;DHT22;6392;44.644;11.448;2023-10-09T05:16:53;19.20;99.90
12655;DHT22;6392;44.644;11.448;2023-10-09T05:19:28;19.20;99.90
12655;DHT22;6392;44.644;11.448;2023-10-09T05:22:11;19.30;99.90
12655;DHT22;6392;44.644;11.448;2023-10-09T05:24:55;19.20;99.90
12655;DHT22;6392;44.644;11.448;2023-10-09T05:27:23;19.20;99.90
12655;DHT22;6392;44.644;11.448;2023-10-09T05:30:11;19.20;99.90
12655;DHT22;6392;44.644;11.448;2023-10-09T05:32:55;19.10;99.90
12655;DHT22;6392;44.644;11.448;2023-10-09T05:35:25;19.10;99.90
12655;DHT22;6392;44.644;11.448;2023-10-09T05:38:07;19.10;99.90
12655;DHT22;6392;44.644;11.448;2023-10-09T05:40:49;19.10;99.90
12655;DHT22;6392;44.644;11.448;2023-10-09T05:43:20;19.10;99.90
12655;DHT22;6392;44.644;11.448;2023-10-09T05:46:01;19.10;99.90
12655;DHT22;6392;44.644;11.448;2023-10-09T05:48:35;19.00;99.90
12655;DHT22;6392;44.644;11.448;2023-10-09T05:51:21;19.00;99.90
12655;DHT22;6392;44.644;11.448;2023-10-09T05:54:14;19.00;99.90
12655;DHT22;6392;44.644;11.448;2023-10-09T05:57:10;18.90;99.90
12655;DHT22;6392;44.644;11.448;2023-10-09T05:59:54;18.90;99.90
12655;DHT22;6392;44.644;11.448;2023-10-09T06:02:38;18.90;99.90
12655;DHT22;6392;44.644;11.448;2023-10-09T06:05:25;18.90;99.90
12655;DHT22;6392;44.644;11.448;2023-10-09T06:08:18;18.90;99.90
12655;DHT22;6392;44.644;11.448;2023-10-09T06:10:51;19.00;99.90
12655;DHT22;6392;44.644;11.448;2023-10-09T06:13:32;19.00;99.90
12655;DHT22;6392;44.644;11.448;2023-10-09T06:16:12;19.10;99.90
12655;DHT22;6392;44.644;11.448;2023-10-09T06:19:09;19.10;99.90
12655;DHT22;6392;44.644;11.448;2023-10-09T06:21:54;19.20;99.90
12655;DHT22;6392;44.644;11.448;2023-10-09T06:25:09;19.20;99.90
12655;DHT22;6392;44.644;11.448;2023-10-09T06:27:44;19.20;99.90
12655;DHT22;6392;44.644;11.448;2023-10-09T06:30:29;19.20;99.90
12655;DHT22;6392;44.644;11.448;2023-10-09T06:33:01;19.30;99.90
12655;DHT22;6392;44.644;11.448;2023-10-09T06:35:45;19.20;99.90
12655;DHT22;6392;44.644;11.448;2023-10-09T06:38:19;19.20;99.90
12655;DHT22;6392;44.644;11.448;2023-10-09T06:40:50;19.20;99.90
12655;DHT22;6392;44.644;11.448;2023-10-09T06:43:35;19.20;99.90
12655;DHT22;6392;44.644;11.448;2023-10-09T06:46:15;19.20;99.90
12655;DHT22;6392;44.644;11.448;2023-10-09T06:49:10;19.30;99.90
12655;DHT22;6392;44.644;11.448;2023-10-09T06:51:59;19.30;99.90
12655;DHT22;6392;44.644;11.448;2023-10-09T06:54:41;19.40;99.90
12655;DHT22;6392;44.644;11.448;2023-10-09T06:57:19;19.60;99.90
12655;DHT22;6392;44.644;11.448;2023-10-09T07:00:01;19.70;99.90
12655;DHT22;6392;44.644;11.448;2023-10-09T07:03:04;19.70;99.90
12655;DHT22;6392;44.644;11.448;2023-10-09T07:05:38;19.90;99.90
12655;DHT22;6392;44.644;11.448;2023-10-09T07:08:26;19.90;99.90
12655;DHT22;6392;44.644;11.448;2023-10-09T07:10:58;19.90;99.90
12655;DHT22;6392;44.644;11.448;2023-10-09T07:14:03;20.00;99.90
12655;DHT22;6392;44.644;11.448;2023-10-09T07:16:33;20.10;99.90
12655;DHT22;6392;44.644;11.448;2023-10-09T07:19:04;20.10;99.90
12655;DHT22;6392;44.644;11.448;2023-10-09T07:21:51;20.20;99.90
12655;DHT22;6392;44.644;11.448;2023-10-09T07:24:34;20.30;99.90
12655;DHT22;6392;44.644;11.448;2023-10-09T07:27:12;20.40;99.90
12655;DHT22;6392;44.644;11.448;2023-10-09T07:29:43;20.50;99.90
12655;DHT22;6392;44.644;11.448;2023-10-09T07:32:14;20.50;99.90
12655;DHT22;6392;44.644;11.448;2023-10-09T07:34:48;20.60;99.90
12655;DHT22;6392;44.644;11.448;2023-10-09T07:37:27;20.60;99.90
12655;DHT22;6392;44.644;11.448;2023-10-09T07:39:57;20.70;99.90
12655;DHT22;6392;44.644;11.448;2023-10-09T07:42:27;20.80;99.90
12655;DHT22;6392;44.644;11.448;2023-10-09T07:45:13;20.80;99.90
12655;DHT22;6392;44.644;11.448;2023-10-09T07:48:02;20.90;99.90
12655;DHT22;6392;44.644;11.448;2023-10-09T07:50:35;20.90;99.90
12655;DHT22;6392;44.644;11.448;2023-10-09T07:53:14;21.00;99.90
12655;DHT22;6392;44.644;11.448;2023-10-09T07:55:44;21.10;99.90
12655;DHT22;6392;44.644;11.448;2023-10-09T07:58:23;21.10;99.90
12655;DHT22;6392;44.644;11.448;2023-10-09T08:00:54;21.20;99.90
12655;DHT22;6392;44.644;11.448;2023-10-09T08:03:43;21.20;99.90
12655;DHT22;6392;44.644;11.448;2023-10-09T08:06:13;21.30;99.90
12655;DHT22;6392;44.644;11.448;2023-10-09T08:08:53;21.30;99.90
12655;DHT22;6392;44.644;11.448;2023-10-09T08:11:38;21.40;99.90
12655;DHT22;6392;44.644;11.448;2023-10-09T08:14:25;21.40;99.90
12655;DHT22;6392;44.644;11.448;2023-10-09T08:17:07;21.50;99.90
12655;DHT22;6392;44.644;11.448;2023-10-09T08:19:41;21.60;99.90
12655;DHT22;6392;44.644;11.448;2023-10-09T08:22:21;21.60;99.90
12655;DHT22;6392;44.644;11.448;2023-10-09T08:25:06;21.60;99.90
12655;DHT22;6392;44.644;11.448;2023-10-09T08:27:33;21.70;99.90
12655;DHT22;6392;44.644;11.448;2023-10-09T08:30:20;21.80;99.90
12655;DHT22;6392;44.644;11.448;2023-10-09T08:33:08;21.80;99.90
12655;DHT22;6392;44.644;11.448;2023-10-09T08:35:55;21.90;99.90
12655;DHT22;6392;44.644;11.448;2023-10-09T08:38:27;22.00;99.90
12655;DHT22;6392;44.644;11.448;2023-10-09T08:41:06;22.00;99.90
12655;DHT22;6392;44.644;11.448;2023-10-09T08:43:47;22.10;99.90
12655;DHT22;6392;44.644;11.448;2023-10-09T08:46:18;22.20;99.90
12655;DHT22;6392;44.644;11.448;2023-10-09T08:48:47;22.20;99.90
12655;DHT22;6392;44.644;11.448;2023-10-09T08:51:17;22.30;99.90
12655;DHT22;6392;44.644;11.448;2023-10-09T08:53:46;22.40;99.90
12655;DHT22;6392;44.644;11.448;2023-10-09T08:56:14;22.40;99.90
12655;DHT22;6392;44.644;11.448;2023-10-09T08:58:49;22.50;99.90
12655;DHT22;6392;44.644;11.448;2023-10-09T09:01:19;22.60;99.90
12655;DHT22;6392;44.644;11.448;2023-10-09T09:03:54;22.60;99.90
12655;DHT22;6392;44.644;11.448;2023-10-09T09:06:23;22.70;99.90
12655;DHT22;6392;44.644;11.448;2023-10-09T09:08:51;22.70;99.90
12655;DHT22;6392;44.644;11.448;2023-10-09T09:11:25;22.70;99.90
12655;DHT22;6392;44.644;11.448;2023-10-09T09:14:04;22.80;99.90
12655;DHT22;6392;44.644;11.448;2023-10-09T09:16:33;22.90;99.90
12655;DHT22;6392;44.644;11.448;2023-10-09T09:19:03;22.90;99.90
12655;DHT22;6392;44.644;11.448;2023-10-09T09:21:48;22.90;99.90
12655;DHT22;6392;44.644;11.448;2023-10-09T09:24:21;23.00;99.90
12655;DHT22;6392;44.644;11.448;2023-10-09T09:27:01;23.00;99.90
12655;DHT22;6392;44.644;11.448;2023-10-09T09:29:39;23.00;99.90
12655;DHT22;6392;44.644;11.448;2023-10-09T09:32:07;23.10;99.90
12655;DHT22;6392;44.644;11.448;2023-10-09T09:34:45;23.20;99.90
12655;DHT22;6392;44.644;11.448;2023-10-09T09:37:19;23.30;99.90
12655;DHT22;6392;44.644;11.448;2023-10-09T09:39:47;23.40;99.90
12655;DHT22;6392;44.644;11.448;2023-10-09T09:42:18;23.40;99.90
12655;DHT22;6392;44.644;11.448;2023-10-09T09:44:51;23.40;99.90
12655;DHT22;6392;44.644;11.448;2023-10-09T09:47:23;23.40;99.90
12655;DHT22;6392;44.644;11.448;2023-10-09T09:50:06;23.50;99.90
12655;DHT22;6392;44.644;11.448;2023-10-09T09:52:50;23.60;99.90
12655;DHT22;6392;44.644;11.448;2023-10-09T09:55:24;23.70;99.90
12655;DHT22;6392;44.644;11.448;2023-10-09T09:57:57;23.80;99.90
12655;DHT22;6392;44.644;11.448;2023-10-09T10:00:28;24.00;99.90
12655;DHT22;6392;44.644;11.448;2023-10-09T10:03:01;24.00;99.90
12655;DHT22;6392;44.644;11.448;2023-10-09T10:05:34;24.00;99.90
12655;DHT22;6392;44.644;11.448;2023-10-09T10:08:02;24.00;99.90
12655;DHT22;6392;44.644;11.448;2023-10-09T10:10:35;24.10;99.90
12655;DHT22;6392;44.644;11.448;2023-10-09T10:13:05;24.10;99.90
12655;DHT22;6392;44.644;11.448;2023-10-09T10:18:54;24.30;99.90
12655;DHT22;6392;44.644;11.448;2023-10-09T10:21:27;24.40;99.90
12655;DHT22;6392;44.644;11.448;2023-10-09T10:24:05;24.60;99.90
12655;DHT22;6392;44.644;11.448;2023-10-09T10:27:14;24.70;99.90
12655;DHT22;6392;44.644;11.448;2023-10-09T10:29:44;24.70;99.90
12655;DHT22;6392;44.644;11.448;2023-10-09T10:32:15;24.90;99.90
12655;DHT22;6392;44.644;11.448;2023-10-09T10:34:52;25.00;99.90
12655;DHT22;6392;44.644;11.448;2023-10-09T10:37:34;25.10;99.90
12655;DHT22;6392;44.644;11.448;2023-10-09T10:40:04;25.10;99.90
12655;DHT22;6392;44.644;11.448;2023-10-09T10:42:47;25.00;99.90
12655;DHT22;6392;44.644;11.448;2023-10-09T10:45:31;25.10;99.90
12655;DHT22;6392;44.644;11.448;2023-10-09T10:48:01;25.10;99.90
12655;DHT22;6392;44.644;11.448;2023-10-09T10:50:33;25.20;99.90
12655;DHT22;6392;44.644;11.448;2023-10-09T10:53:11;25.30;99.90
12655;DHT22;6392;44.644;11.448;2023-10-09T10:55:54;25.40;99.90
12655;DHT22;6392;44.644;11.448;2023-10-09T10:58:22;25.40;99.90
12655;DHT22;6392;44.644;11.448;2023-10-09T11:01:01;25.50;99.90
12655;DHT22;6392;44.644;11.448;2023-10-09T11:03:46;25.50;99.90
12655;DHT22;6392;44.644;11.448;2023-10-09T11:06:26;25.40;99.90
12655;DHT22;6392;44.644;11.448;2023-10-09T11:09:03;25.30;99.90
12655;DHT22;6392;44.644;11.448;2023-10-09T11:11:36;25.40;99.90
12655;DHT22;6392;44.644;11.448;2023-10-09T11:14:13;25.40;99.90
12655;DHT22;6392;44.644;11.448;2023-10-09T11:16:41;25.40;99.90
12655;DHT22;6392;44.644;11.448;2023-10-09T11:19:09;25.40;99.90
12655;DHT22;6392;44.644;11.448;2023-10-09T11:21:50;25.60;99.90
12655;DHT22;6392;44.644;11.448;2023-10-09T11:24:26;25.70;99.90
12655;DHT22;6392;44.644;11.448;2023-10-09T11:26:58;25.70;99.90
12655;DHT22;6392;44.644;11.448;2023-10-09T11:29:31;25.80;99.90
12655;DHT22;6392;44.644;11.448;2023-10-09T11:32:15;25.90;99.90
12655;DHT22;6392;44.644;11.448;2023-10-09T11:34:44;25.90;99.90
12655;DHT22;6392;44.644;11.448;2023-10-09T11:37:18;26.00;99.90
12655;DHT22;6392;44.644;11.448;2023-10-09T11:40:06;26.00;99.90
12655;DHT22;6392;44.644;11.448;2023-10-09T11:42:49;26.10;99.90
12655;DHT22;6392;44.644;11.448;2023-10-09T11:45:24;26.10;99.90
12655;DHT22;6392;44.644;11.448;2023-10-09T11:47:55;26.30;99.90
12655;DHT22;6392;44.644;11.448;2023-10-09T11:50:41;26.50;99.90
12655;DHT22;6392;44.644;11.448;2023-10-09T11:53:10;26.60;99.90
12655;DHT22;6392;44.644;11.448;2023-10-09T11:55:46;26.70;99.90
12655;DHT22;6392;44.644;11.448;2023-10-09T11:58:15;26.70;99.90
12655;DHT22;6392;44.644;11.448;2023-10-09T12:00:52;26.80;99.90
12655;DHT22;6392;44.644;11.448;2023-10-09T12:03:24;26.90;99.90
12655;DHT22;6392;44.644;11.448;2023-10-09T12:05:55;27.00;99.90
12655;DHT22;6392;44.644;11.448;2023-10-09T12:08:23;27.20;99.90
12655;DHT22;6392;44.644;11.448;2023-10-09T12:10:54;27.30;99.90
12655;DHT22;6392;44.644;11.448;2023-10-09T12:13:22;27.30;99.90
12655;DHT22;6392;44.644;11.448;2023-10-09T12:15:49;27.40;99.90
12655;DHT22;6392;44.644;11.448;2023-10-09T12:18:19;27.60;99.90
12655;DHT22;6392;44.644;11.448;2023-10-09T12:20:47;27.70;99.90
12655;DHT22;6392;44.644;11.448;2023-10-09T12:23:17;27.70;99.90
12655;DHT22;6392;44.644;11.448;2023-10-09T12:25:45;27.90;99.90
12655;DHT22;6392;44.644;11.448;2023-10-09T12:28:14;28.00;99.90
12655;DHT22;6392;44.644;11.448;2023-10-09T12:30:41;28.10;99.90
12655;DHT22;6392;44.644;11.448;2023-10-09T12:33:08;28.10;99.90
12655;DHT22;6392;44.644;11.448;2023-10-09T12:35:38;28.20;99.90
12655;DHT22;6392;44.644;11.448;2023-10-09T12:38:07;28.30;99.90
12655;DHT22;6392;44.644;11.448;2023-10-09T12:40:36;28.50;99.90
12655;DHT22;6392;44.644;11.448;2023-10-09T12:43:05;28.40;99.90
12655;DHT22;6392;44.644;11.448;2023-10-09T12:45:42;28.50;99.90
12655;DHT22;6392;44.644;11.448;2023-10-09T12:48:10;28.70;99.90
12655;DHT22;6392;44.644;11.448;2023-10-09T12:50:38;28.80;99.90
12655;DHT22;6392;44.644;11.448;2023-10-09T12:53:08;29.00;99.90
12655;DHT22;6392;44.644;11.448;2023-10-09T12:55:36;29.00;99.90
12655;DHT22;6392;44.644;11.448;2023-10-09T12:58:06;29.10;99.90
12655;DHT22;6392;44.644;11.448;2023-10-09T13:00:35;29.30;99.90
12655;DHT22;6392;44.644;11.448;2023-10-09T13:03:06;29.50;99.90
12655;DHT22;6392;44.644;11.448;2023-10-09T13:05:46;29.70;99.90
12655;DHT22;6392;44.644;11.448;2023-10-09T13:08:23;29.70;99.90
12655;DHT22;6392;44.644;11.448;2023-10-09T13:10:57;29.80;99.90
12655;DHT22;6392;44.644;11.448;2023-10-09T13:13:36;29.90;99.90
12655;DHT22;6392;44.644;11.448;2023-10-09T13:16:11;29.80;99.90
12655;DHT22;6392;44.644;11.448;2023-10-09T13:18:41;29.70;99.90
12655;DHT22;6392;44.644;11.448;2023-10-09T13:21:15;29.70;99.90
12655;DHT22;6392;44.644;11.448;2023-10-09T13:23:42;29.50;99.90
12655;DHT22;6392;44.644;11.448;2023-10-09T13:26:12;29.50;99.90
12655;DHT22;6392;44.644;11.448;2023-10-09T13:28:50;29.40;99.90
12655;DHT22;6392;44.644;11.448;2023-10-09T13:31:18;29.50;99.90
12655;DHT22;6392;44.644;11.448;2023-10-09T13:33:48;29.40;99.90
12655;DHT22;6392;44.644;11.448;2023-10-09T13:36:17;29.30;99.90
12655;DHT22;6392;44.644;11.448;2023-10-09T13:38:45;29.40;99.90
12655;DHT22;6392;44.644;11.448;2023-10-09T13:41:12;29.40;99.90
12655;DHT22;6392;44.644;11.448;2023-10-09T13:43:40;29.40;99.90
12655;DHT22;6392;44.644;11.448;2023-10-09T13:46:09;29.30;99.90
12655;DHT22;6392;44.644;11.448;2023-10-09T13:48:37;29.20;99.90
12655;DHT22;6392;44.644;11.448;2023-10-09T13:51:08;29.10;99.90
12655;DHT22;6392;44.644;11.448;2023-10-09T13:53:40;29.10;99.90
12655;DHT22;6392;44.644;11.448;2023-10-09T13:56:11;29.50;99.90
12655;DHT22;6392;44.644;11.448;2023-10-09T13:58:47;30.20;99.90
12655;DHT22;6392;44.644;11.448;2023-10-09T14:01:15;30.80;99.90
12655;DHT22;6392;44.644;11.448;2023-10-09T14:03:54;30.90;99.90
12655;DHT22;6392;44.644;11.448;2023-10-09T14:06:23;30.70;99.90
12655;DHT22;6392;44.644;11.448;2023-10-09T14:08:58;30.40;99.90
12655;DHT22;6392;44.644;11.448;2023-10-09T14:11:25;30.00;99.90
12655;DHT22;6392;44.644;11.448;2023-10-09T14:13:53;29.90;99.90
12655;DHT22;6392;44.644;11.448;2023-10-09T14:16:21;29.90;99.90
12655;DHT22;6392;44.644;11.448;2023-10-09T14:18:54;29.90;99.90
12655;DHT22;6392;44.644;11.448;2023-10-09T14:21:27;30.00;99.90
12655;DHT22;6392;44.644;11.448;2023-10-09T14:23:57;30.00;99.90
12655;DHT22;6392;44.644;11.448;2023-10-09T14:26:25;29.90;99.90
12655;DHT22;6392;44.644;11.448;2023-10-09T14:28:54;29.80;99.90
12655;DHT22;6392;44.644;11.448;2023-10-09T14:31:26;29.80;99.90
12655;DHT22;6392;44.644;11.448;2023-10-09T14:33:56;29.70;99.90
12655;DHT22;6392;44.644;11.448;2023-10-09T14:36:25;29.60;99.90
12655;DHT22;6392;44.644;11.448;2023-10-09T14:39:02;29.50;99.90
12655;DHT22;6392;44.644;11.448;2023-10-09T14:41:32;29.50;99.90
12655;DHT22;6392;44.644;11.448;2023-10-09T14:44:04;29.50;99.90
12655;DHT22;6392;44.644;11.448;2023-10-09T14:46:32;29.50;99.90
12655;DHT22;6392;44.644;11.448;2023-10-09T14:49:02;29.60;99.90
12655;DHT22;6392;44.644;11.448;2023-10-09T14:51:34;29.60;99.90
12655;DHT22;6392;44.644;11.448;2023-10-09T14:54:03;29.60;99.90
12655;DHT22;6392;44.644;11.448;2023-10-09T14:56:37;29.40;99.90
12655;DHT22;6392;44.644;11.448;2023-10-09T14:59:07;29.40;99.90
12655;DHT22;6392;44.644;11.448;2023-10-09T15:01:39;29.50;99.90
12655;DHT22;6392;44.644;11.448;2023-10-09T15:04:07;29.60;99.90
12655;DHT22;6392;44.644;11.448;2023-10-09T15:06:41;29.60;99.90
12655;DHT22;6392;44.644;11.448;2023-10-09T15:09:08;29.50;99.90
12655;DHT22;6392;44.644;11.448;2023-10-09T15:11:43;29.50;99.90
12655;DHT22;6392;44.644;11.448;2023-10-09T15:14:14;29.50;99.90
12655;DHT22;6392;44.644;11.448;2023-10-09T15:16:42;29.50;99.90
12655;DHT22;6392;44.644;11.448;2023-10-09T15:19:16;29.40;99.90
12655;DHT22;6392;44.644;11.448;2023-10-09T15:21:47;29.40;99.90
12655;DHT22;6392;44.644;11.448;2023-10-09T15:24:16;29.40;99.90
12655;DHT22;6392;44.644;11.448;2023-10-09T15:26:47;29.40;99.90
12655;DHT22;6392;44.644;11.448;2023-10-09T15:29:19;29.40;99.90
12655;DHT22;6392;44.644;11.448;2023-10-09T15:31:49;29.30;99.90
12655;DHT22;6392;44.644;11.448;2023-10-09T15:34:17;29.30;99.90
12655;DHT22;6392;44.644;11.448;2023-10-09T15:36:48;29.20;99.90
12655;DHT22;6392;44.644;11.448;2023-10-09T15:39:17;29.20;99.90
12655;DHT22;6392;44.644;11.448;2023-10-09T15:41:45;29.20;99.90
12655;DHT22;6392;44.644;11.448;2023-10-09T15:44:13;29.20;99.90
12655;DHT22;6392;44.644;11.448;2023-10-09T15:46:40;29.20;99.90
12655;DHT22;6392;44.644;11.448;2023-10-09T15:49:10;29.20;99.90
12655;DHT22;6392;44.644;11.448;2023-10-09T15:51:39;29.10;99.90
12655;DHT22;6392;44.644;11.448;2023-10-09T15:54:11;29.00;99.90
12655;DHT22;6392;44.644;11.448;2023-10-09T15:56:43;28.80;99.90
12655;DHT22;6392;44.644;11.448;2023-10-09T15:59:11;28.80;99.90
12655;DHT22;6392;44.644;11.448;2023-10-09T16:01:40;28.70;99.90
12655;DHT22;6392;44.644;11.448;2023-10-09T16:04:08;28.50;99.90
12655;DHT22;6392;44.644;11.448;2023-10-09T16:06:37;28.30;99.90
12655;DHT22;6392;44.644;11.448;2023-10-09T16:09:06;28.20;99.90
12655;DHT22;6392;44.644;11.448;2023-10-09T16:11:38;28.00;99.90
12655;DHT22;6392;44.644;11.448;2023-10-09T16:14:06;27.90;99.90
12655;DHT22;6392;44.644;11.448;2023-10-09T16:16:36;27.80;99.90
12655;DHT22;6392;44.644;11.448;2023-10-09T16:19:07;27.70;99.90